Time;durP1;ratioP1;P1;durP2;ratioP2;P2;SDS_P1;SDS_P2;PMS_P1;PMS_P2;Temp;Humidity;BMP_temperature;BMP_pressure;BME280_temperature;BME280_humidity;BME280_pressure;Samples;Min_cycle;Max_cycle;Signal;HPM_P1;HPM_P2
2023/10/13 00:00:34;;;;;;;79.65;34.35;;;13.70;99.90;;;;;;5084860;28;20048;-78
2023/10/13 00:03:14;;;;;;;70.85;33.00;;;14.40;99.90;;;;;;5123704;27;20122;-80
2023/10/13 00:05:41;;;;;;;82.07;34.70;;;13.80;99.90;;;;;;5113209;28;20051;-79
2023/10/13 00:08:09;;;;;;;76.32;33.13;;;13.90;99.90;;;;;;5072074;28;20084;-78
2023/10/13 00:10:35;;;;;;;94.35;36.55;;;13.90;99.90;;;;;;5092567;28;20048;-79
2023/10/13 00:15:39;;;;;;;100.05;38.30;;;13.90;99.90;;;;;;5120405;27;20048;-79
2023/10/13 00:18:12;;;;;;;98.90;40.58;;;14.10;99.90;;;;;;5100243;28;20040;-78
2023/10/13 00:20:49;;;;;;;82.80;36.00;;;14.00;99.90;;;;;;5117944;27;20044;-78
2023/10/13 00:23:20;;;;;;;100.25;39.17;;;14.10;99.90;;;;;;5109577;28;20036;-77
2023/10/13 00:25:53;;;;;;;93.38;37.72;;;14.10;99.90;;;;;;5109860;28;20028;-78
2023/10/13 00:28:26;;;;;;;85.28;38.10;;;14.10;99.90;;;;;;5098234;28;20053;-78
2023/10/13 00:30:59;;;;;;;97.95;39.35;;;14.20;99.90;;;;;;5097529;28;20056;-78
2023/10/13 00:33:25;;;;;;;91.63;39.25;;;14.20;99.90;;;;;;5121130;28;20036;-78
2023/10/13 00:35:57;;;;;;;94.70;38.92;;;14.20;99.90;;;;;;5100726;28;20071;-79
2023/10/13 00:38:24;;;;;;;100.78;40.35;;;14.30;99.90;;;;;;5098858;28;20040;-79
2023/10/13 00:40:53;;;;;;;85.65;36.63;;;14.30;99.90;;;;;;5110348;28;20032;-78
2023/10/13 00:45:54;;;;;;;92.50;38.38;;;14.40;99.90;;;;;;5107566;28;20040;-79
2023/10/13 00:48:33;;;;;;;91.53;36.25;;;14.50;99.90;;;;;;5082769;28;20041;-78
2023/10/13 00:51:07;;;;;;;81.40;37.92;;;14.50;99.90;;;;;;5099520;28;20044;-79
2023/10/13 00:53:40;;;;;;;100.85;37.90;;;14.60;99.90;;;;;;5095293;28;20043;-77
2023/10/13 00:56:27;;;;;;;103.70;39.97;;;14.60;99.90;;;;;;5094093;28;20048;-79
2023/10/13 00:58:57;;;;;;;107.72;40.38;;;14.60;99.90;;;;;;5100044;28;20044;-79
2023/10/13 01:01:32;;;;;;;92.88;39.28;;;14.60;99.90;;;;;;5096330;28;20052;-79
2023/10/13 01:04:02;;;;;;;81.18;36.95;;;14.70;99.90;;;;;;5090369;28;20061;-79
2023/10/13 01:06:29;;;;;;;95.00;39.45;;;14.70;99.90;;;;;;5101839;28;20071;-79
2023/10/13 01:09:18;;;;;;;93.72;38.75;;;14.70;99.90;;;;;;5087311;28;20048;-80
2023/10/13 01:11:52;;;;;;;81.90;35.45;;;14.80;99.90;;;;;;5109004;28;20044;-79
2023/10/13 01:14:20;;;;;;;93.47;38.92;;;14.80;99.90;;;;;;5098132;28;20052;-80
2023/10/13 01:16:46;;;;;;;;;;;14.90;99.90;;;;;;5098815;28;20044;-79
2023/10/13 01:19:24;;;;;;;88.40;37.58;;;14.90;99.90;;;;;;5086580;28;20365;-79
2023/10/13 01:22:02;;;;;;;80.50;36.83;;;14.90;99.90;;;;;;5099317;28;20036;-79
2023/10/13 01:24:31;;;;;;;89.10;37.22;;;14.90;99.90;;;;;;5073244;28;20039;-79
2023/10/13 01:27:00;;;;;;;92.60;38.47;;;15.00;99.90;;;;;;5090839;28;20048;-77
2023/10/13 01:29:30;;;;;;;89.25;37.10;;;15.00;99.90;;;;;;5109271;28;20055;-77
2023/10/13 01:31:55;;;;;;;91.28;38.08;;;15.10;99.90;;;;;;5074504;28;20040;-79
2023/10/13 01:34:24;;;;;;;77.35;34.85;;;15.10;99.90;;;;;;5091364;28;20069;-79
2023/10/13 01:36:51;;;;;;;75.38;35.05;;;15.10;99.90;;;;;;5091194;28;20397;-78
2023/10/13 01:39:18;;;;;;;85.90;36.53;;;15.10;99.90;;;;;;5091395;28;20064;-78
2023/10/13 01:41:55;;;;;;;88.13;34.85;;;15.10;99.90;;;;;;5103097;28;20042;-78
2023/10/13 01:44:21;;;;;;;85.32;33.47;;;15.20;99.90;;;;;;5102365;28;20044;-78
2023/10/13 01:46:51;;;;;;;80.28;34.58;;;15.20;99.90;;;;;;5074802;28;20055;-79
2023/10/13 01:49:16;;;;;;;79.60;33.85;;;15.20;99.90;;;;;;5104628;28;20044;-79
2023/10/13 01:51:43;;;;;;;73.07;32.42;;;15.20;99.90;;;;;;5094714;28;20044;-78
2023/10/13 01:54:12;;;;;;;82.47;33.45;;;15.20;99.90;;;;;;5115275;28;20040;-78
2023/10/13 01:56:44;;;;;;;76.75;31.55;;;15.30;99.90;;;;;;5103114;28;20048;-79
2023/10/13 01:59:13;;;;;;;64.47;30.30;;;15.30;99.90;;;;;;5090418;28;20080;-78
2023/10/13 02:01:42;;;;;;;64.50;29.92;;;15.30;99.90;;;;;;5120879;28;20044;-79
2023/10/13 02:04:10;;;;;;;69.88;29.73;;;15.30;99.90;;;;;;5090732;27;20051;-78
2023/10/13 02:06:36;;;;;;;58.60;27.20;;;15.30;99.90;;;;;;5106752;28;20043;-79
2023/10/13 02:09:12;;;;;;;63.30;27.92;;;15.40;99.90;;;;;;5098826;28;20036;-78
2023/10/13 02:11:45;;;;;;;66.90;27.73;;;15.40;99.90;;;;;;5098589;28;20055;-79
2023/10/13 02:14:12;;;;;;;51.10;25.33;;;15.40;99.90;;;;;;5109019;28;20051;-79
2023/10/13 02:16:40;;;;;;;52.13;24.80;;;15.40;99.90;;;;;;5115391;28;20058;-79
2023/10/13 02:19:15;;;;;;;50.22;23.77;;;15.50;99.90;;;;;;5110200;28;20070;-77
2023/10/13 02:21:45;;;;;;;50.00;22.45;;;15.50;99.90;;;;;;5100265;28;20074;-78
2023/10/13 02:24:30;;;;;;;45.10;22.65;;;15.50;99.90;;;;;;5107635;28;20511;-78
2023/10/13 02:27:03;;;;;;;48.47;22.23;;;15.50;99.90;;;;;;5093695;28;20066;-76
2023/10/13 02:29:29;;;;;;;49.08;22.15;;;15.50;99.90;;;;;;5130194;28;20115;-79
2023/10/13 02:31:57;;;;;;;43.38;22.48;;;15.60;99.90;;;;;;5105650;28;20044;-77
2023/10/13 02:34:23;;;;;;;47.67;22.65;;;15.60;99.90;;;;;;5112113;28;20044;-77
2023/10/13 02:36:49;;;;;;;40.15;20.80;;;15.50;99.90;;;;;;5093566;28;20117;-78
2023/10/13 02:39:24;;;;;;;48.15;21.50;;;15.60;99.90;;;;;;5089978;28;20040;-78
2023/10/13 02:41:51;;;;;;;42.97;21.52;;;15.60;99.90;;;;;;5102815;28;20530;-78
2023/10/13 02:44:33;;;;;;;34.28;19.98;;;15.60;99.90;;;;;;5091948;28;20048;-80
2023/10/13 02:46:59;;;;;;;40.10;21.08;;;15.60;99.90;;;;;;5097442;28;20048;-79
2023/10/13 02:49:36;;;;;;;39.95;20.55;;;15.60;99.90;;;;;;5096496;28;20048;-78
2023/10/13 02:52:08;;;;;;;33.35;17.65;;;15.60;99.90;;;;;;5087441;28;20508;-78
2023/10/13 02:54:39;;;;;;;32.80;17.67;;;15.70;99.90;;;;;;5072803;28;20139;-79
2023/10/13 02:57:06;;;;;;;34.78;17.42;;;15.70;99.90;;;;;;5102777;28;20044;-79
2023/10/13 02:59:46;;;;;;;32.83;17.15;;;15.70;99.90;;;;;;5095031;28;20127;-79
2023/10/13 03:02:25;;;;;;;31.85;15.88;;;15.70;99.90;;;;;;5089216;28;20055;-78
2023/10/13 03:04:52;;;;;;;32.30;18.48;;;15.70;99.90;;;;;;5078623;28;20477;-79
2023/10/13 03:07:28;;;;;;;28.63;17.88;;;15.70;99.90;;;;;;5091932;28;20040;-81
2023/10/13 03:10:01;;;;;;;38.15;19.23;;;15.70;99.90;;;;;;5091768;28;20080;-79
2023/10/13 03:12:36;;;;;;;36.25;20.95;;;15.70;99.90;;;;;;5093133;28;20052;-80
2023/10/13 03:15:29;;;;;;;44.95;21.77;;;15.70;99.90;;;;;;5080575;28;20093;-78
2023/10/13 03:17:55;;;;;;;44.90;23.10;;;15.70;99.90;;;;;;5080780;28;20044;-78
2023/10/13 03:20:30;;;;;;;51.20;23.98;;;15.80;99.90;;;;;;5109036;28;20047;-79
2023/10/13 03:22:56;;;;;;;54.70;25.95;;;15.80;99.90;;;;;;5088140;28;20427;-80
2023/10/13 03:30:21;;;;;;;58.40;26.85;;;15.80;99.90;;;;;;5111778;28;20048;-79
2023/10/13 03:32:54;;;;;;;57.50;28.50;;;16.10;99.90;;;;;;5102927;28;20446;-78
2023/10/13 03:35:31;;;;;;;62.58;28.92;;;15.80;99.90;;;;;;5100690;28;20067;-78
2023/10/13 03:37:57;;;;;;;67.13;28.20;;;15.80;99.90;;;;;;5095494;28;20144;-77
2023/10/13 03:43:04;;;;;;;65.40;30.10;;;15.90;99.90;;;;;;5093117;28;20094;-79
2023/10/13 03:45:39;;;;;;;67.13;30.10;;;15.90;99.90;;;;;;5093075;28;20078;-78
2023/10/13 03:51:10;;;;;;;55.40;25.95;;;15.90;99.90;;;;;;5102496;28;20115;-78
2023/10/13 03:53:55;;;;;;;62.20;26.65;;;15.90;99.90;;;;;;5093170;28;20045;-79
2023/10/13 03:56:28;;;;;;;60.25;24.95;;;15.90;99.90;;;;;;5101131;28;20047;-79
2023/10/13 03:59:46;;;;;;;47.08;22.30;;;15.90;99.90;;;;;;5098413;28;20645;-78
2023/10/13 04:01:53;;;;;;;55.42;22.30;;;15.90;99.90;;;;;;5082334;28;20406;-79
2023/10/13 04:05:07;;;;;;;45.35;22.08;;;15.90;99.90;;;;;;5075745;28;20555;-79
2023/10/13 04:17:26;;;;;;;41.67;19.58;;;15.90;99.90;;;;;;5091551;28;20055;-79
2023/10/13 04:38:57;;;;;;;46.03;19.83;;;15.90;99.90;;;;;;5098248;28;20104;-79
2023/10/13 04:41:42;;;;;;;51.88;20.40;;;15.90;99.90;;;;;;5088034;28;20047;-78
2023/10/13 04:57:46;;;;;;;39.30;18.27;;;15.90;99.90;;;;;;5086904;28;20143;-79
2023/10/13 05:06:10;;;;;;;52.13;20.75;;;15.90;99.90;;;;;;5083769;28;20049;-81
2023/10/13 06:28:40;;;;;;;18.85;9.82;;;15.60;99.90;;;;;;5113017;28;20062;-78
2023/10/13 06:31:07;;;;;;;20.58;10.07;;;15.60;99.90;;;;;;5110661;28;20047;-77
2023/10/13 06:33:34;;;;;;;16.13;9.48;;;15.60;99.90;;;;;;5104924;28;20102;-79
2023/10/13 06:36:09;;;;;;;21.05;10.07;;;15.60;99.90;;;;;;5076879;28;20040;-79
2023/10/13 06:38:36;;;;;;;21.75;11.02;;;15.60;99.90;;;;;;5097664;28;20040;-80
2023/10/13 06:41:06;;;;;;;21.55;10.50;;;15.60;99.90;;;;;;5087913;28;20453;-79
2023/10/13 06:43:32;;;;;;;26.98;11.07;;;15.60;99.90;;;;;;5087055;28;20074;-78
2023/10/13 06:46:00;;;;;;;22.00;9.90;;;15.60;99.90;;;;;;5104502;28;20044;-76
2023/10/13 06:48:26;;;;;;;18.55;10.45;;;15.70;99.90;;;;;;5085948;28;20055;-79
2023/10/13 06:50:55;;;;;;;23.13;10.55;;;15.60;99.90;;;;;;5087552;28;20044;-79
2023/10/13 06:53:22;;;;;;;17.25;9.20;;;15.60;99.90;;;;;;5081817;28;20319;-79
2023/10/13 06:55:49;;;;;;;17.20;9.32;;;16.10;99.90;;;;;;5090033;28;20536;-79
2023/10/13 06:58:17;;;;;;;19.88;9.00;;;15.70;99.90;;;;;;5098205;28;20158;-79
2023/10/13 07:00:53;;;;;;;15.43;9.32;;;15.70;99.90;;;;;;5098606;28;20432;-78
2023/10/13 07:03:25;;;;;;;17.38;9.07;;;15.80;99.90;;;;;;5074382;28;20098;-78
2023/10/13 07:05:52;;;;;;;14.60;8.88;;;15.80;99.90;;;;;;5084945;28;20039;-79
2023/10/13 07:08:21;;;;;;;13.18;7.90;;;15.80;99.90;;;;;;5081122;28;20083;-78
2023/10/13 07:10:52;;;;;;;14.25;8.10;;;15.80;99.90;;;;;;5087062;28;20507;-79
2023/10/13 07:13:19;;;;;;;15.43;8.27;;;15.90;99.90;;;;;;5094759;28;20051;-79
2023/10/13 07:15:45;;;;;;;22.88;9.15;;;15.80;99.90;;;;;;5074035;28;20040;-79
2023/10/13 07:18:18;;;;;;;16.73;9.20;;;15.90;99.90;;;;;;5071328;28;20048;-78
2023/10/13 07:20:44;;;;;;;19.80;8.43;;;15.90;99.90;;;;;;5097277;28;20389;-78
2023/10/13 07:23:17;;;;;;;16.40;8.38;;;15.90;99.90;;;;;;5091327;28;20165;-81
2023/10/13 07:25:51;;;;;;;12.93;7.35;;;15.90;99.90;;;;;;5088796;28;20051;-80
2023/10/13 07:28:17;;;;;;;18.85;7.97;;;15.90;99.90;;;;;;5074263;28;20059;-78
2023/10/13 07:30:57;;;;;;;21.42;9.18;;;15.90;99.90;;;;;;5095847;28;20048;-79
2023/10/13 07:33:23;;;;;;;18.20;8.50;;;15.90;99.90;;;;;;5105814;27;20067;-81
2023/10/13 07:36:01;;;;;;;17.67;7.63;;;15.90;99.90;;;;;;5081903;28;20044;-79
2023/10/13 07:38:30;;;;;;;19.85;8.48;;;16.20;99.90;;;;;;5077662;28;20055;-81
2023/10/13 07:41:08;;;;;;;23.50;7.28;;;16.00;99.90;;;;;;5092291;28;20502;-83
2023/10/13 07:43:37;;;;;;;15.80;7.50;;;16.00;99.90;;;;;;5113907;27;20829;-83
2023/10/13 07:46:09;;;;;;;17.50;7.40;;;16.00;99.90;;;;;;5077282;28;20038;-80
2023/10/13 07:48:37;;;;;;;23.00;8.10;;;15.90;99.90;;;;;;5089071;28;20040;-82
2023/10/13 07:51:22;;;;;;;21.15;8.00;;;16.00;99.90;;;;;;5080112;28;20059;-79
2023/10/13 07:53:52;;;;;;;25.75;9.02;;;15.90;99.90;;;;;;5089310;28;20052;-79
2023/10/13 07:56:18;;;;;;;18.38;8.05;;;16.00;99.90;;;;;;5081519;28;20054;-78
2023/10/13 07:59:00;;;;;;;23.35;8.68;;;15.90;99.90;;;;;;5098244;28;20137;-78
2023/10/13 08:01:26;;;;;;;17.30;7.22;;;15.90;99.90;;;;;;5099423;28;20050;-79
2023/10/13 08:04:04;;;;;;;21.67;9.00;;;15.90;99.90;;;;;;5084634;28;20050;-82
2023/10/13 08:06:30;;;;;;;17.60;7.85;;;15.90;99.90;;;;;;5086862;28;21505;-81
2023/10/13 08:09:09;;;;;;;17.90;7.70;;;15.90;99.90;;;;;;5108357;28;20024;-82
2023/10/13 08:11:38;;;;;;;22.95;8.75;;;15.90;99.90;;;;;;5106738;28;20044;-82
2023/10/13 08:14:12;;;;;;;22.60;8.65;;;15.80;99.90;;;;;;5084782;28;20138;-83
2023/10/13 08:19:15;;;;;;;18.83;8.48;;;15.90;99.90;;;;;;5098633;28;20079;-81
2023/10/13 08:21:49;;;;;;;24.95;9.35;;;15.90;99.90;;;;;;5080518;28;20033;-84
2023/10/13 08:43:11;;;;;;;22.52;9.55;;;16.00;99.90;;;;;;5092733;28;20101;-83
2023/10/13 08:56:34;;;;;;;31.90;11.27;;;16.30;99.90;;;;;;5098323;28;20280;-85
2023/10/13 09:01:45;;;;;;;20.63;9.20;;;16.30;99.90;;;;;;5083587;28;20074;-81
2023/10/13 09:09:34;;;;;;;22.52;8.85;;;16.40;99.90;;;;;;5096424;28;20127;-81
2023/10/13 09:12:14;;;;;;;22.60;9.82;;;16.50;99.90;;;;;;5074030;28;20036;-82
2023/10/13 09:14:44;;;;;;;23.83;10.63;;;16.50;99.90;;;;;;5089069;28;20076;-82
2023/10/13 09:19:56;;;;;;;23.52;10.93;;;16.50;99.90;;;;;;5108566;28;20056;-81
2023/10/13 09:22:27;;;;;;;22.98;10.80;;;16.60;99.90;;;;;;5102526;28;20109;-82
2023/10/13 09:24:59;;;;;;;24.85;10.70;;;16.80;99.90;;;;;;5109604;28;20072;-83
2023/10/13 09:27:29;;;;;;;24.15;10.65;;;16.80;99.90;;;;;;5125188;28;20048;-81
2023/10/13 09:33:15;;;;;;;28.73;10.27;;;16.90;99.90;;;;;;5072976;28;20140;-83
2023/10/13 09:35:49;;;;;;;22.55;9.68;;;17.00;99.90;;;;;;5100967;28;20079;-80
2023/10/13 09:38:19;;;;;;;22.13;9.60;;;17.20;99.90;;;;;;5076237;28;20040;-82
2023/10/13 09:40:51;;;;;;;20.30;9.65;;;17.20;99.90;;;;;;5101370;28;20051;-81
2023/10/13 09:43:18;;;;;;;26.80;10.02;;;17.30;99.90;;;;;;5074801;28;20051;-81
2023/10/13 09:46:02;;;;;;;24.97;11.07;;;17.40;99.90;;;;;;5099646;28;20048;-81
2023/10/13 09:48:45;;;;;;;20.20;9.93;;;17.40;99.90;;;;;;5101257;28;20047;-84
2023/10/13 09:51:22;;;;;;;21.08;9.05;;;17.40;99.90;;;;;;5077166;28;20072;-81
2023/10/13 09:54:09;;;;;;;25.55;9.38;;;17.50;99.90;;;;;;5091769;28;20121;-81
2023/10/13 09:56:55;;;;;;;22.73;10.75;;;17.60;99.90;;;;;;5098722;28;20027;-81
2023/10/13 09:59:40;;;;;;;21.05;9.50;;;17.60;99.90;;;;;;5101190;28;20101;-81
2023/10/13 10:02:08;;;;;;;19.33;8.82;;;17.70;99.90;;;;;;5085891;28;20119;-81
2023/10/13 10:04:44;;;;;;;20.85;8.95;;;17.80;99.90;;;;;;5084886;28;20046;-80
2023/10/13 10:07:28;;;;;;;18.05;7.55;;;17.80;99.90;;;;;;5090400;28;20047;-82
2023/10/13 10:09:58;;;;;;;18.08;7.88;;;17.90;99.90;;;;;;5092646;28;20055;-80
2023/10/13 10:12:47;;;;;;;16.30;7.00;;;17.90;99.90;;;;;;5092547;28;20089;-80
2023/10/13 10:15:43;;;;;;;17.20;8.23;;;18.00;99.90;;;;;;5092511;28;20047;-81
2023/10/13 10:18:24;;;;;;;16.73;7.72;;;17.90;99.90;;;;;;5105927;28;20056;-82
2023/10/13 10:20:54;;;;;;;20.42;8.15;;;18.00;99.90;;;;;;5089305;28;20100;-83
2023/10/13 10:23:35;;;;;;;22.13;7.57;;;18.00;99.90;;;;;;5095406;28;20036;-80
2023/10/13 10:26:19;;;;;;;15.70;7.32;;;17.50;99.90;;;;;;5108043;28;20040;-81
2023/10/13 10:28:46;;;;;;;22.98;7.80;;;18.00;99.90;;;;;;5090421;28;20032;-80
2023/10/13 10:31:12;;;;;;;21.80;7.32;;;18.00;99.90;;;;;;5102021;28;20044;-80
2023/10/13 10:33:39;;;;;;;20.27;7.30;;;18.00;99.90;;;;;;5109483;28;20041;-80
2023/10/13 10:36:05;;;;;;;18.35;7.40;;;18.00;99.90;;;;;;5080920;28;20101;-82
2023/10/13 10:41:00;;;;;;;18.20;6.57;;;18.10;99.90;;;;;;5090250;28;20139;-82
2023/10/13 10:43:41;;;;;;;19.40;6.70;;;18.20;99.90;;;;;;5111058;28;20054;-81
2023/10/13 10:46:19;;;;;;;23.80;7.70;;;18.20;99.90;;;;;;5117794;28;20078;-80
2023/10/13 10:48:45;;;;;;;16.65;6.82;;;18.30;99.90;;;;;;5098492;28;20036;-80
2023/10/13 10:51:15;;;;;;;16.83;6.97;;;18.40;99.90;;;;;;5111991;28;20053;-80
2023/10/13 10:53:44;;;;;;;20.98;6.57;;;18.50;99.90;;;;;;5106261;28;20036;-79
2023/10/13 10:56:24;;;;;;;26.30;7.28;;;18.50;99.90;;;;;;5111978;27;20059;-81
2023/10/13 10:59:00;;;;;;;16.60;6.80;;;18.50;99.90;;;;;;5076375;28;20058;-80
2023/10/13 11:01:33;;;;;;;17.65;6.65;;;18.50;99.90;;;;;;5096596;28;20048;-81
2023/10/13 11:04:24;;;;;;;18.90;6.32;;;18.50;99.90;;;;;;5097578;28;20059;-80
2023/10/13 11:06:54;;;;;;;16.58;6.03;;;18.70;99.90;;;;;;5093420;28;20059;-82
2023/10/13 11:09:31;;;;;;;21.80;6.32;;;19.00;99.90;;;;;;5097065;28;20047;-80
2023/10/13 11:12:24;;;;;;;21.27;7.05;;;19.20;99.90;;;;;;5107912;28;20058;-80
2023/10/13 11:15:22;;;;;;;19.50;7.32;;;19.20;99.90;;;;;;5086572;28;20049;-80
2023/10/13 11:17:54;;;;;;;16.77;6.13;;;19.20;99.90;;;;;;5100618;28;20048;-80
2023/10/13 11:20:33;;;;;;;16.70;6.38;;;19.40;99.90;;;;;;5093945;28;20048;-80
2023/10/13 11:22:59;;;;;;;;;;;19.20;99.90;;;;;;5105059;28;20112;-81
2023/10/13 11:25:30;;;;;;;18.40;6.35;;;19.10;99.90;;;;;;5099269;28;19925;-81
2023/10/13 11:28:27;;;;;;;15.30;6.07;;;19.00;99.90;;;;;;5102142;28;20052;-79
2023/10/13 11:30:59;;;;;;;23.67;6.90;;;19.00;99.90;;;;;;5123378;28;20075;-82
2023/10/13 11:33:29;;;;;;;22.52;7.13;;;18.90;99.90;;;;;;5083900;28;20039;-80
2023/10/13 11:35:56;;;;;;;26.52;7.68;;;19.00;99.90;;;;;;5089555;28;20485;-79
2023/10/13 11:38:26;;;;;;;22.48;6.43;;;19.00;99.90;;;;;;5093837;28;20492;-81
2023/10/13 11:43:52;;;;;;;19.33;6.65;;;19.10;99.90;;;;;;5096395;28;20131;-81
2023/10/13 11:51:47;;;;;;;18.55;6.47;;;18.90;99.90;;;;;;5097788;28;20089;-79
2023/10/13 11:54:21;;;;;;;18.83;6.78;;;18.80;99.90;;;;;;5100221;28;20036;-80
2023/10/13 11:56:49;;;;;;;20.00;6.60;;;18.70;99.90;;;;;;5105754;28;20047;-80
2023/10/13 11:59:18;;;;;;;;;;;18.90;99.90;;;;;;5113700;28;20055;-80
2023/10/13 12:04:51;;;;;;;21.58;7.13;;;18.50;99.90;;;;;;5087049;28;20040;-80
2023/10/13 12:10:32;;;;;;;20.83;7.60;;;18.50;99.90;;;;;;5099791;28;20040;-82
2023/10/13 12:13:05;;;;;;;18.23;7.40;;;18.40;99.90;;;;;;5096479;28;20043;-81
2023/10/13 12:15:48;;;;;;;20.42;7.38;;;18.40;99.90;;;;;;5078341;28;20032;-80
2023/10/13 12:18:15;;;;;;;22.70;7.55;;;18.50;99.90;;;;;;5072136;28;20055;-80
2023/10/13 12:20:45;;;;;;;18.23;6.38;;;18.50;99.90;;;;;;5097638;28;20045;-79
2023/10/13 12:23:20;;;;;;;15.13;6.82;;;18.60;99.90;;;;;;5105070;28;20041;-81
2023/10/13 12:25:54;;;;;;;27.20;7.75;;;18.60;99.90;;;;;;5082040;28;20482;-81
2023/10/13 12:28:26;;;;;;;17.55;7.72;;;18.60;99.90;;;;;;5115211;28;20056;-82
2023/10/13 12:30:54;;;;;;;19.45;7.22;;;18.70;99.90;;;;;;5085302;28;20056;-81
2023/10/13 12:33:36;;;;;;;20.70;7.75;;;18.70;99.90;;;;;;5095538;28;20058;-80
2023/10/13 12:37:05;;;;;;;22.23;7.60;;;18.70;99.90;;;;;;5086502;28;20489;-82
2023/10/13 12:57:28;;;;;;;28.27;8.73;;;18.40;99.90;;;;;;5100065;28;20044;-81
2023/10/13 12:59:54;;;;;;;22.27;8.30;;;18.30;99.90;;;;;;5096699;28;20056;-82
2023/10/13 13:02:24;;;;;;;22.15;8.85;;;18.30;99.90;;;;;;5093745;28;20039;-81
2023/10/13 13:04:54;;;;;;;24.20;8.05;;;18.20;99.90;;;;;;5096947;28;20104;-80
2023/10/13 13:07:29;;;;;;;24.38;9.13;;;18.30;99.90;;;;;;5094775;28;20061;-81
2023/10/13 13:09:58;;;;;;;28.08;9.50;;;18.20;99.90;;;;;;5091036;28;20048;-80
2023/10/13 13:12:24;;;;;;;27.20;9.52;;;18.10;99.90;;;;;;5079320;28;20051;-78
2023/10/13 13:14:54;;;;;;;20.55;9.02;;;18.10;99.90;;;;;;5086997;28;20040;-78
2023/10/13 13:17:22;;;;;;;27.42;9.20;;;18.00;99.90;;;;;;5063210;28;20045;-79
2023/10/13 13:19:48;;;;;;;26.55;10.07;;;18.00;99.90;;;;;;5081623;28;20044;-79
2023/10/13 13:22:13;;;;;;;26.63;11.25;;;17.90;99.90;;;;;;5096542;28;20044;-81
2023/10/13 13:24:47;;;;;;;19.50;9.82;;;17.90;99.90;;;;;;5106208;28;20035;-78
2023/10/13 13:27:14;;;;;;;23.52;10.43;;;17.90;99.90;;;;;;5093344;28;20442;-81
2023/10/13 13:29:44;;;;;;;21.58;10.00;;;17.80;99.90;;;;;;5085036;28;20036;-79
2023/10/13 13:32:17;;;;;;;23.55;9.43;;;17.80;99.90;;;;;;5095365;28;20454;-80
2023/10/13 13:34:44;;;;;;;22.15;10.65;;;17.80;99.90;;;;;;5080729;28;20070;-79
2023/10/13 13:37:12;;;;;;;27.63;10.85;;;17.80;99.90;;;;;;5094911;28;20044;-79
2023/10/13 13:39:44;;;;;;;24.27;9.90;;;17.70;99.90;;;;;;5068421;28;20140;-77
2023/10/13 13:42:10;;;;;;;30.08;11.48;;;17.70;99.90;;;;;;5082060;28;20045;-78
2023/10/13 13:44:36;;;;;;;22.17;10.40;;;17.70;99.90;;;;;;5082312;28;20036;-79
2023/10/13 13:47:11;;;;;;;21.38;11.00;;;17.90;99.90;;;;;;5094116;28;20508;-82
2023/10/13 13:49:46;;;;;;;17.90;9.68;;;17.60;99.90;;;;;;5118526;28;20048;-81
2023/10/13 13:52:17;;;;;;;29.90;10.50;;;17.60;99.90;;;;;;5088334;28;20060;-80
2023/10/13 13:54:43;;;;;;;33.92;11.02;;;17.60;99.90;;;;;;5100233;28;20044;-78
2023/10/13 13:57:09;;;;;;;29.20;10.18;;;17.70;99.90;;;;;;5100154;28;20489;-81
2023/10/13 13:59:36;;;;;;;27.75;9.60;;;17.70;99.90;;;;;;5097259;28;20049;-81
2023/10/13 14:02:19;;;;;;;26.40;9.77;;;17.70;99.90;;;;;;5091179;28;20040;-79
2023/10/13 14:04:46;;;;;;;26.05;10.57;;;17.70;99.90;;;;;;5102477;28;20075;-79
2023/10/13 14:07:14;;;;;;;20.80;9.48;;;17.70;99.90;;;;;;5085850;28;20067;-78
2023/10/13 14:09:43;;;;;;;20.60;9.05;;;17.70;99.90;;;;;;5101912;28;20062;-79
2023/10/13 14:14:56;;;;;;;22.55;9.18;;;17.70;99.90;;;;;;5092587;28;20041;-79
2023/10/13 14:17:35;;;;;;;19.70;8.07;;;17.80;99.90;;;;;;5099208;28;20059;-79
2023/10/13 14:20:05;;;;;;;;;;;17.80;99.90;;;;;;5104686;28;20048;-81
2023/10/13 14:22:36;;;;;;;23.65;9.02;;;17.90;99.90;;;;;;5104452;28;19920;-80
2023/10/13 14:25:08;;;;;;;25.02;9.38;;;17.90;99.90;;;;;;5106625;28;20121;-79
2023/10/13 14:27:35;;;;;;;26.13;9.48;;;17.90;99.90;;;;;;5111956;28;20047;-81
2023/10/13 14:30:04;;;;;;;21.13;8.48;;;17.90;99.90;;;;;;5103602;28;20044;-79
2023/10/13 14:32:30;;;;;;;29.02;8.93;;;18.00;99.90;;;;;;5093140;28;20086;-80
2023/10/13 14:34:56;;;;;;;20.48;9.02;;;18.00;99.90;;;;;;5112053;28;20125;-80
2023/10/13 14:37:31;;;;;;;25.10;8.93;;;17.90;99.90;;;;;;5108577;28;20104;-79
2023/10/13 14:39:59;;;;;;;21.83;9.77;;;18.00;99.90;;;;;;5098915;28;20044;-80
2023/10/13 14:42:28;;;;;;;23.25;9.07;;;18.00;99.90;;;;;;5097016;28;20040;-80
2023/10/13 14:44:57;;;;;;;26.55;9.18;;;18.00;99.90;;;;;;5096684;28;20405;-81
2023/10/13 14:47:26;;;;;;;27.05;8.98;;;17.90;99.90;;;;;;5098034;28;20045;-81
2023/10/13 14:49:59;;;;;;;24.73;9.35;;;17.90;99.90;;;;;;5080062;28;20119;-82
2023/10/13 14:52:25;;;;;;;26.30;8.93;;;17.90;99.90;;;;;;5076534;28;20385;-80
2023/10/13 14:54:57;;;;;;;20.67;8.07;;;17.90;99.90;;;;;;5103663;28;20464;-80
2023/10/13 14:57:24;;;;;;;16.50;7.35;;;17.90;99.90;;;;;;5113051;27;20063;-82
2023/10/13 14:59:53;;;;;;;22.70;9.18;;;17.90;99.90;;;;;;5096395;28;20051;-80
2023/10/13 15:02:20;;;;;;;19.58;8.05;;;17.90;99.90;;;;;;5097617;28;20366;-78
2023/10/13 15:04:49;;;;;;;25.38;8.93;;;17.90;99.90;;;;;;5099345;28;20040;-79
2023/10/13 15:07:17;;;;;;;20.98;8.52;;;17.90;99.90;;;;;;5098206;28;20097;-78
2023/10/13 15:09:43;;;;;;;;;;;18.10;99.90;;;;;;5119575;28;20459;-78
2023/10/13 15:12:10;;;;;;;27.90;8.85;;;17.90;99.90;;;;;;5085792;27;20002;-79
2023/10/13 15:14:43;;;;;;;21.60;9.35;;;17.90;99.90;;;;;;5095528;28;20078;-79
2023/10/13 15:17:10;;;;;;;27.30;8.50;;;17.90;99.90;;;;;;5094455;28;20465;-79
2023/10/13 15:19:38;;;;;;;24.88;9.57;;;17.90;99.90;;;;;;5085827;28;20401;-79
2023/10/13 15:22:12;;;;;;;30.58;9.98;;;17.80;99.90;;;;;;5110816;27;20048;-80
2023/10/13 15:24:59;;;;;;;34.42;11.23;;;17.80;99.90;;;;;;5083073;28;20055;-78
2023/10/13 15:27:28;;;;;;;28.13;11.13;;;17.70;99.90;;;;;;5097815;28;20040;-77
2023/10/13 15:29:54;;;;;;;30.85;11.95;;;17.60;99.90;;;;;;5078511;28;20052;-79
2023/10/13 15:35:12;;;;;;;25.30;11.15;;;17.50;99.90;;;;;;5101822;28;20052;-78
2023/10/13 15:37:38;;;;;;;27.73;11.63;;;17.50;99.90;;;;;;5069035;28;20068;-77
2023/10/13 15:40:07;;;;;;;28.25;11.02;;;17.40;99.90;;;;;;5096188;28;20475;-78
2023/10/13 15:42:45;;;;;;;37.35;11.10;;;17.40;99.90;;;;;;5102196;28;20048;-79
2023/10/13 15:45:17;;;;;;;32.72;11.40;;;17.10;99.90;;;;;;5114653;27;20044;-80
2023/10/13 15:47:49;;;;;;;27.55;10.90;;;17.40;99.90;;;;;;5090870;28;20036;-80
2023/10/13 15:56:00;;;;;;;25.48;11.48;;;17.40;99.90;;;;;;5091618;28;20059;-78
2023/10/13 15:58:28;;;;;;;24.45;10.73;;;17.40;99.90;;;;;;5091279;28;20061;-82
2023/10/13 16:00:55;;;;;;;35.10;13.27;;;17.40;99.90;;;;;;5101382;28;20058;-81
2023/10/13 16:03:22;;;;;;;26.60;12.23;;;16.80;99.90;;;;;;5100541;28;20093;-80
2023/10/13 16:05:48;;;;;;;32.40;11.98;;;17.30;99.90;;;;;;5085182;28;20085;-81
2023/10/13 16:08:19;;;;;;;35.45;12.80;;;17.30;99.90;;;;;;5097012;28;20048;-81
2023/10/13 16:10:45;;;;;;;27.83;11.02;;;17.10;99.90;;;;;;5083150;28;20113;-82
2023/10/13 16:13:15;;;;;;;36.15;13.15;;;17.30;99.90;;;;;;5072795;28;20052;-79
2023/10/13 16:15:44;;;;;;;23.00;11.32;;;17.30;99.90;;;;;;5084612;28;20080;-82
2023/10/13 16:18:21;;;;;;;31.08;12.50;;;17.30;99.90;;;;;;5079194;28;20110;-78
2023/10/13 16:20:55;;;;;;;29.57;12.27;;;17.70;99.90;;;;;;5094894;28;20044;-80
2023/10/13 16:26:21;;;;;;;31.23;12.38;;;17.30;99.90;;;;;;5100863;28;20074;-81
2023/10/13 16:28:58;;;;;;;29.60;11.30;;;16.50;99.90;;;;;;5102177;28;20080;-82
2023/10/13 16:31:28;;;;;;;29.35;11.10;;;17.30;99.90;;;;;;5126744;28;20043;-80
2023/10/13 16:33:56;;;;;;;28.10;9.70;;;17.10;99.90;;;;;;5110484;28;20051;-81
2023/10/13 16:36:28;;;;;;;22.50;9.23;;;17.20;99.90;;;;;;5106524;28;20052;-80
2023/10/13 16:38:57;;;;;;;19.83;9.55;;;17.20;99.90;;;;;;5102910;28;20036;-80
2023/10/13 16:41:26;;;;;;;27.42;10.90;;;17.20;99.90;;;;;;5095630;28;20109;-79
2023/10/13 16:43:58;;;;;;;23.98;9.23;;;17.20;99.90;;;;;;5089368;28;20040;-81
2023/10/13 16:46:26;;;;;;;21.33;9.27;;;17.20;99.90;;;;;;5109433;28;20459;-80
2023/10/13 16:48:51;;;;;;;;;;;17.20;99.90;;;;;;5107738;28;20063;-81
2023/10/13 16:51:18;;;;;;;28.77;8.70;;;17.70;99.90;;;;;;5098501;28;19916;-81
2023/10/13 16:53:49;;;;;;;20.35;9.20;;;17.20;99.90;;;;;;5068180;28;20043;-82
2023/10/13 16:56:18;;;;;;;22.27;8.20;;;17.10;99.90;;;;;;5076890;28;20852;-80